Time;durP1;ratioP1;P1;durP2;ratioP2;P2;SDS_P1;SDS_P2;PMS_P1;PMS_P2;Temp;Humidity;BMP_temperature;BMP_pressure;BME280_temperature;BME280_humidity;BME280_pressure;Samples;Min_cycle;Max_cycle;Signal;HPM_P1;HPM_P2
2022/05/21 00:01:03;;;;;;;14.63;2.00;;;10.90;99.90;;;;;;5012188;28;20393;-57
2022/05/21 00:03:31;;;;;;;17.45;3.42;;;10.90;99.90;;;;;;5011945;28;20049;-58
2022/05/21 00:05:59;;;;;;;21.33;3.28;;;10.80;99.90;;;;;;5012054;28;20050;-58
2022/05/21 00:08:34;;;;;;;20.40;3.17;;;10.80;99.90;;;;;;5010796;28;20402;-56
2022/05/21 00:11:02;;;;;;;17.15;2.42;;;10.80;99.90;;;;;;5013359;28;20506;-57
2022/05/21 00:13:30;;;;;;;24.40;3.47;;;10.80;99.90;;;;;;5013351;28;20520;-57
2022/05/21 00:15:57;;;;;;;19.02;3.97;;;10.80;99.90;;;;;;5013324;28;20061;-58
2022/05/21 00:18:25;;;;;;;22.25;2.70;;;10.80;99.90;;;;;;5012867;28;20057;-57
2022/05/21 00:20:53;;;;;;;16.23;2.53;;;10.80;99.90;;;;;;5013315;28;20049;-57
2022/05/21 00:23:28;;;;;;;26.38;3.17;;;10.80;99.90;;;;;;5003869;28;20042;-57
2022/05/21 00:25:58;;;;;;;22.50;2.80;;;10.80;99.90;;;;;;5013204;28;20053;-57
2022/05/21 00:28:27;;;;;;;23.35;3.65;;;10.80;99.90;;;;;;5013210;28;20481;-57
2022/05/21 00:30:55;;;;;;;20.25;2.80;;;10.80;99.90;;;;;;5013131;28;20053;-57
2022/05/21 00:33:24;;;;;;;14.88;2.72;;;10.80;99.90;;;;;;5012836;28;20049;-57
2022/05/21 00:35:52;;;;;;;19.70;2.13;;;10.80;99.90;;;;;;5013012;28;20050;-58
2022/05/21 00:38:20;;;;;;;17.73;2.92;;;10.90;99.90;;;;;;5005432;28;20046;-57
2022/05/21 00:40:49;;;;;;;18.55;3.13;;;10.90;99.90;;;;;;5013184;28;20490;-57
2022/05/21 00:43:46;;;;;;;20.95;2.25;;;10.90;99.90;;;;;;5012654;28;20046;-59
2022/05/21 00:46:19;;;;;;;23.33;3.10;;;11.00;99.90;;;;;;5012625;28;20050;-58
2022/05/21 00:48:51;;;;;;;16.25;3.17;;;11.00;99.90;;;;;;5012901;28;20069;-58
2022/05/21 00:51:25;;;;;;;14.48;3.03;;;11.00;99.90;;;;;;5012800;28;20133;-57
2022/05/21 00:53:55;;;;;;;14.30;2.33;;;11.00;99.90;;;;;;5005145;28;20038;-58
2022/05/21 00:56:25;;;;;;;13.02;2.15;;;11.00;99.90;;;;;;5012467;28;20486;-56
2022/05/21 01:01:45;;;;;;;28.20;4.47;;;11.00;99.90;;;;;;5008866;28;20061;-57
2022/05/21 01:04:13;;;;;;;15.05;2.28;;;11.00;99.90;;;;;;5009139;28;20038;-57
2022/05/21 01:06:41;;;;;;;17.13;2.10;;;11.00;99.90;;;;;;5009913;28;20050;-57
2022/05/21 01:09:09;;;;;;;15.18;2.75;;;10.90;99.90;;;;;;5006609;28;20490;-56
2022/05/21 01:11:37;;;;;;;14.25;2.70;;;10.90;99.90;;;;;;5011110;28;20069;-56
2022/05/21 01:14:08;;;;;;;21.00;3.50;;;10.80;99.90;;;;;;5012004;28;20083;-56
2022/05/21 01:16:36;;;;;;;14.32;1.90;;;10.80;99.90;;;;;;5012003;28;20057;-57
2022/05/21 01:19:08;;;;;;;18.17;2.65;;;10.80;99.90;;;;;;5012188;28;20042;-57
2022/05/21 01:21:37;;;;;;;12.32;1.95;;;10.70;99.90;;;;;;5010912;28;20049;-56
2022/05/21 01:24:07;;;;;;;18.08;2.97;;;10.70;99.90;;;;;;5007274;28;20037;-56
2022/05/21 01:26:36;;;;;;;18.08;2.60;;;10.70;99.90;;;;;;5010693;28;20053;-56
2022/05/21 01:29:11;;;;;;;17.85;3.13;;;10.60;99.90;;;;;;5010485;28;20041;-56
2022/05/21 01:31:39;;;;;;;15.85;2.85;;;10.60;99.90;;;;;;5007407;28;20055;-57
2022/05/21 01:34:08;;;;;;;22.45;3.38;;;10.60;99.90;;;;;;4993771;28;20474;-57
2022/05/21 01:36:35;;;;;;;17.42;2.85;;;10.50;99.90;;;;;;4993931;28;20046;-57
2022/05/21 01:39:03;;;;;;;20.05;3.35;;;10.50;99.90;;;;;;5005286;28;20485;-58
2022/05/21 01:41:31;;;;;;;16.23;4.25;;;10.50;99.90;;;;;;5012141;28;20041;-56
2022/05/21 01:46:44;;;;;;;18.95;3.38;;;10.40;99.90;;;;;;5011903;28;20046;-56
2022/05/21 01:49:12;;;;;;;22.52;3.90;;;10.30;99.90;;;;;;5013356;28;20511;-57
2022/05/21 01:51:40;;;;;;;18.63;2.33;;;10.30;99.90;;;;;;5011935;28;20054;-57
2022/05/21 01:54:07;;;;;;;18.52;3.15;;;10.30;99.90;;;;;;5013280;28;20046;-57
2022/05/21 01:56:35;;;;;;;18.08;2.97;;;10.20;99.90;;;;;;5013199;28;20050;-57
2022/05/21 01:59:03;;;;;;;17.50;3.00;;;10.20;99.90;;;;;;5011319;28;20497;-58
2022/05/21 02:01:30;;;;;;;20.75;2.72;;;10.20;99.90;;;;;;5013045;28;20489;-58
2022/05/21 02:03:58;;;;;;;15.38;2.33;;;10.10;99.90;;;;;;5011571;28;20406;-58
2022/05/21 02:06:27;;;;;;;21.38;2.33;;;10.10;99.90;;;;;;5012760;28;20050;-57
2022/05/21 02:08:55;;;;;;;17.90;2.35;;;10.10;99.90;;;;;;5013052;28;20053;-57
2022/05/21 02:11:23;;;;;;;13.23;2.95;;;10.20;99.90;;;;;;5012614;28;20049;-57
2022/05/21 02:13:50;;;;;;;29.60;3.13;;;10.10;99.90;;;;;;5011355;28;20072;-57
2022/05/21 02:16:18;;;;;;;14.32;2.35;;;10.10;99.90;;;;;;5012814;28;20046;-57
2022/05/21 02:18:46;;;;;;;23.38;3.33;;;10.10;99.90;;;;;;5010321;28;20053;-58
2022/05/21 02:21:13;;;;;;;15.32;2.45;;;10.10;99.90;;;;;;5012813;28;20525;-56
2022/05/21 02:23:41;;;;;;;18.50;2.65;;;10.00;99.90;;;;;;5012727;28;20049;-57
2022/05/21 02:26:08;;;;;;;17.73;2.95;;;10.00;99.90;;;;;;4995073;28;20049;-57
2022/05/21 02:28:36;;;;;;;17.80;2.85;;;9.90;99.90;;;;;;5012416;28;20053;-57
2022/05/21 02:31:03;;;;;;;22.70;2.85;;;9.90;99.90;;;;;;5011460;28;20049;-57
2022/05/21 02:33:31;;;;;;;13.75;2.08;;;9.80;99.90;;;;;;5012581;28;20056;-57
2022/05/21 02:35:59;;;;;;;18.42;3.83;;;9.80;99.90;;;;;;5012688;28;20057;-57
2022/05/21 02:41:14;;;;;;;14.85;2.65;;;9.80;99.90;;;;;;5012369;28;20038;-57
2022/05/21 02:43:43;;;;;;;18.35;3.08;;;9.80;99.90;;;;;;5012401;28;20045;-56
2022/05/21 02:46:11;;;;;;;19.02;3.10;;;9.70;99.90;;;;;;5012259;28;20042;-58
2022/05/21 02:48:40;;;;;;;21.85;2.75;;;9.70;99.90;;;;;;5012248;28;20046;-56
2022/05/21 02:51:10;;;;;;;18.35;2.90;;;9.70;99.90;;;;;;5012045;28;20042;-57
2022/05/21 02:53:37;;;;;;;;;;;9.70;99.90;;;;;;5012893;28;20056;-58
2022/05/21 02:56:08;;;;;;;15.82;2.53;;;9.70;99.90;;;;;;5010836;28;20407;-57
2022/05/21 02:58:36;;;;;;;15.98;2.53;;;9.70;99.90;;;;;;5012156;28;20049;-57
2022/05/21 03:01:04;;;;;;;17.98;3.60;;;9.60;99.90;;;;;;5012053;28;20042;-57
2022/05/21 03:03:31;;;;;;;10.02;2.00;;;9.60;99.90;;;;;;5011793;28;20053;-58
2022/05/21 03:05:59;;;;;;;18.35;2.53;;;9.60;99.90;;;;;;5011917;28;20054;-57
2022/05/21 03:11:30;;;;;;;18.40;3.17;;;9.60;99.90;;;;;;4935032;29;20046;-57
2022/05/21 03:13:57;;;;;;;20.00;2.88;;;9.60;99.90;;;;;;5000135;28;20053;-57
2022/05/21 03:16:25;;;;;;;20.73;2.53;;;9.60;99.90;;;;;;5011807;28;20053;-57
2022/05/21 03:18:53;;;;;;;19.15;2.58;;;9.60;99.90;;;;;;5011910;28;20072;-57
2022/05/21 03:21:20;;;;;;;15.25;2.17;;;9.60;99.90;;;;;;5011838;28;20057;-58
2022/05/21 03:23:48;;;;;;;20.85;4.05;;;9.60;99.90;;;;;;5011800;28;20041;-58
2022/05/21 03:26:16;;;;;;;16.63;2.83;;;9.60;99.90;;;;;;5011098;28;20061;-56
2022/05/21 03:28:43;;;;;;;13.75;2.33;;;9.60;99.90;;;;;;5011962;28;20046;-56
2022/05/21 03:31:11;;;;;;;16.20;3.30;;;9.50;99.90;;;;;;4994488;28;20053;-57
2022/05/21 03:33:39;;;;;;;13.98;2.85;;;9.60;99.90;;;;;;5011649;28;20050;-57
2022/05/21 03:36:08;;;;;;;17.52;3.05;;;9.60;99.90;;;;;;5011694;28;20042;-57
2022/05/21 03:38:36;;;;;;;16.67;2.15;;;9.50;99.90;;;;;;5011768;28;20042;-58
2022/05/21 03:41:04;;;;;;;16.95;2.60;;;9.50;99.90;;;;;;5011644;28;20050;-57
2022/05/21 03:43:32;;;;;;;24.23;2.97;;;9.50;99.90;;;;;;5010560;28;20054;-57
2022/05/21 03:46:00;;;;;;;11.65;2.47;;;9.50;99.90;;;;;;5011621;28;20053;-57
2022/05/21 03:48:28;;;;;;;19.77;2.70;;;9.50;99.90;;;;;;5011397;28;20042;-57
2022/05/21 03:50:55;;;;;;;15.02;2.88;;;9.40;99.90;;;;;;5011679;28;20394;-57
2022/05/21 03:53:23;;;;;;;20.67;3.15;;;9.40;99.90;;;;;;5011663;28;20057;-57
2022/05/21 03:55:52;;;;;;;13.27;2.03;;;9.40;99.90;;;;;;5010526;28;20065;-57
2022/05/21 03:58:20;;;;;;;23.25;3.90;;;9.30;99.90;;;;;;5011703;28;20050;-57
2022/05/21 04:00:48;;;;;;;17.70;2.53;;;9.30;99.90;;;;;;5011504;28;20490;-57
2022/05/21 04:03:16;;;;;;;17.52;2.65;;;9.20;99.90;;;;;;5010301;28;20050;-56
2022/05/21 04:05:44;;;;;;;20.30;2.75;;;9.20;99.90;;;;;;5011541;28;20046;-57
2022/05/21 04:08:12;;;;;;;19.58;3.17;;;9.20;99.90;;;;;;5011147;28;20057;-56
2022/05/21 04:10:39;;;;;;;20.33;2.55;;;9.10;99.90;;;;;;5010027;28;20054;-56
2022/05/21 04:13:07;;;;;;;17.70;3.80;;;9.10;99.90;;;;;;5011424;28;20057;-57
2022/05/21 04:15:35;;;;;;;18.42;2.67;;;9.10;99.90;;;;;;5010953;28;20046;-56
2022/05/21 04:18:03;;;;;;;17.42;2.75;;;9.10;99.90;;;;;;5011377;28;20050;-57
2022/05/21 04:20:30;;;;;;;13.07;2.92;;;9.20;99.90;;;;;;5011240;28;20065;-58
2022/05/21 04:22:58;;;;;;;11.50;3.08;;;9.20;99.90;;;;;;5010130;28;20054;-57
2022/05/21 04:25:26;;;;;;;13.82;2.20;;;9.20;99.90;;;;;;5011246;28;20050;-56
2022/05/21 04:27:54;;;;;;;16.02;2.33;;;9.20;99.90;;;;;;5011176;28;20050;-57
2022/05/21 04:30:28;;;;;;;15.10;2.60;;;9.30;99.90;;;;;;5011330;28;20043;-57
2022/05/21 04:32:57;;;;;;;17.20;2.63;;;9.30;99.90;;;;;;5011186;28;20045;-57
2022/05/21 04:36:17;;;;;;;8.93;1.92;;;9.30;99.90;;;;;;5010054;28;20484;-57
2022/05/21 04:38:15;;;;;;;17.48;3.15;;;9.30;99.90;;;;;;5013629;28;20041;-57
2022/05/21 04:40:43;;;;;;;11.85;2.78;;;9.30;99.90;;;;;;5014602;28;20058;-57
2022/05/21 04:43:10;;;;;;;26.02;3.33;;;9.30;99.90;;;;;;5014616;28;20049;-57
2022/05/21 04:45:39;;;;;;;15.27;2.85;;;9.30;99.90;;;;;;5014555;28;20379;-57
2022/05/21 04:48:08;;;;;;;13.90;1.92;;;9.30;99.90;;;;;;5001328;28;20500;-58
2022/05/21 04:50:37;;;;;;;20.60;2.88;;;9.30;99.90;;;;;;4990232;28;20054;-56
2022/05/21 04:53:05;;;;;;;18.23;2.58;;;9.30;99.90;;;;;;4991711;28;20054;-56
2022/05/21 04:55:33;;;;;;;20.13;3.53;;;9.40;99.90;;;;;;4991661;28;20502;-57
2022/05/21 04:58:01;;;;;;;18.75;3.28;;;9.40;99.90;;;;;;4999351;28;20064;-57
2022/05/21 05:00:29;;;;;;;15.90;2.92;;;9.50;99.90;;;;;;5009496;28;20057;-57
2022/05/21 05:02:56;;;;;;;18.83;3.28;;;9.50;99.90;;;;;;5000080;28;20050;-56
2022/05/21 05:05:25;;;;;;;16.73;2.90;;;9.50;99.90;;;;;;4989617;28;20482;-57
2022/05/21 05:07:53;;;;;;;21.05;3.15;;;9.60;99.90;;;;;;4997340;28;20057;-56
2022/05/21 05:10:22;;;;;;;12.90;2.00;;;9.70;99.90;;;;;;4994191;28;20058;-56
2022/05/21 05:12:50;;;;;;;14.15;2.70;;;9.70;99.90;;;;;;5007513;28;20443;-56
2022/05/21 05:15:18;;;;;;;16.23;2.45;;;9.80;99.90;;;;;;5008155;28;20046;-56
2022/05/21 05:17:46;;;;;;;15.77;3.20;;;9.80;99.90;;;;;;5008775;28;20045;-56
2022/05/21 05:20:13;;;;;;;12.95;2.78;;;9.90;99.90;;;;;;4992579;28;20050;-56
2022/05/21 05:22:41;;;;;;;17.55;2.63;;;9.90;99.90;;;;;;4994135;28;20078;-56
2022/05/21 05:25:09;;;;;;;21.88;2.80;;;9.90;99.90;;;;;;5012248;28;20501;-57
2022/05/21 05:27:37;;;;;;;16.67;2.33;;;10.00;99.90;;;;;;5012149;28;20042;-57
2022/05/21 05:30:05;;;;;;;15.70;2.42;;;10.00;99.90;;;;;;5012173;28;20409;-56
2022/05/21 05:32:33;;;;;;;11.35;2.53;;;10.10;99.90;;;;;;5011407;28;20489;-56
2022/05/21 05:35:01;;;;;;;10.63;1.70;;;10.10;99.90;;;;;;5012036;28;20076;-56
2022/05/21 05:37:29;;;;;;;16.38;2.30;;;10.20;99.90;;;;;;5007383;28;20493;-57
2022/05/21 05:39:57;;;;;;;14.50;2.80;;;10.20;99.90;;;;;;5008713;28;20466;-56
2022/05/21 05:42:26;;;;;;;23.00;4.13;;;10.30;99.90;;;;;;5008756;28;20046;-56
2022/05/21 05:44:54;;;;;;;19.88;2.70;;;10.30;99.90;;;;;;5007187;28;20065;-57
2022/05/21 05:47:22;;;;;;;20.08;3.38;;;10.40;99.90;;;;;;5008931;28;20502;-56
2022/05/21 05:49:49;;;;;;;19.33;3.22;;;10.40;99.90;;;;;;4993440;28;20482;-56
2022/05/21 05:52:19;;;;;;;21.43;3.30;;;10.50;99.90;;;;;;4990501;28;20050;-56
2022/05/21 05:54:47;;;;;;;21.05;2.60;;;10.50;99.90;;;;;;5009084;28;20058;-56
2022/05/21 05:57:15;;;;;;;15.55;2.42;;;10.60;99.90;;;;;;5011435;28;20045;-57
2022/05/21 05:59:49;;;;;;;10.05;1.73;;;10.60;99.90;;;;;;5011561;28;20415;-56
2022/05/21 06:05:14;;;;;;;10.27;2.00;;;10.70;99.90;;;;;;4991975;28;20433;-56
2022/05/21 06:07:49;;;;;;;21.15;2.97;;;10.80;99.90;;;;;;4997032;28;20041;-56
2022/05/21 06:10:21;;;;;;;12.80;2.58;;;10.90;99.90;;;;;;5011062;28;20057;-56
2022/05/21 06:12:49;;;;;;;14.27;2.47;;;10.90;99.90;;;;;;5011238;28;20048;-56
2022/05/21 06:15:17;;;;;;;17.75;2.67;;;11.00;99.90;;;;;;5010056;28;20067;-56
2022/05/21 06:17:45;;;;;;;17.67;3.25;;;11.00;99.90;;;;;;5009704;28;20070;-55
2022/05/21 06:20:15;;;;;;;19.27;3.17;;;11.10;99.90;;;;;;4990864;28;20050;-55
2022/05/21 06:22:46;;;;;;;8.65;1.90;;;11.20;99.90;;;;;;4993116;28;20054;-56
2022/05/21 06:25:18;;;;;;;14.25;2.80;;;11.20;99.90;;;;;;5011129;28;20050;-56
2022/05/21 06:27:51;;;;;;;17.25;2.08;;;11.40;99.90;;;;;;5010669;28;20064;-58
2022/05/21 06:30:24;;;;;;;14.77;1.88;;;11.50;99.90;;;;;;5010975;28;20042;-57
2022/05/21 06:32:52;;;;;;;16.33;1.85;;;11.50;99.90;;;;;;5004170;28;20046;-57
2022/05/21 06:35:20;;;;;;;11.18;2.92;;;11.60;99.90;;;;;;4991700;28;20046;-57
2022/05/21 06:37:48;;;;;;;14.77;2.10;;;11.60;99.90;;;;;;4997145;28;20057;-58
2022/05/21 06:40:17;;;;;;;11.23;1.98;;;11.70;99.90;;;;;;5010851;28;20053;-57
2022/05/21 06:42:46;;;;;;;10.95;1.65;;;11.80;99.90;;;;;;5007801;28;20561;-57
2022/05/21 06:45:15;;;;;;;14.75;1.88;;;11.90;99.90;;;;;;4990191;28;20058;-57
2022/05/21 06:47:43;;;;;;;14.80;2.03;;;11.90;99.90;;;;;;5009800;28;20045;-57
2022/05/21 06:50:12;;;;;;;9.90;2.10;;;12.00;99.90;;;;;;4993130;28;20046;-57
2022/05/21 06:52:39;;;;;;;14.93;4.05;;;12.00;99.90;;;;;;4990201;28;20059;-56
2022/05/21 06:55:11;;;;;;;11.23;1.90;;;12.10;99.90;;;;;;5010709;28;20045;-57
2022/05/21 06:57:38;;;;;;;9.98;2.42;;;12.20;99.90;;;;;;5009346;28;20045;-57
2022/05/21 07:00:07;;;;;;;14.43;2.38;;;12.20;99.90;;;;;;5008278;28;20057;-57
2022/05/21 07:02:35;;;;;;;18.55;2.53;;;12.30;99.90;;;;;;5007433;28;20057;-57
2022/05/21 07:07:49;;;;;;;24.05;2.38;;;12.30;99.90;;;;;;4995967;28;20049;-58
2022/05/21 07:10:23;;;;;;;9.38;2.00;;;12.30;99.90;;;;;;5010331;28;20045;-57
2022/05/21 07:12:52;;;;;;;15.18;2.40;;;12.30;99.90;;;;;;5010481;28;20053;-57
2022/05/21 07:15:20;;;;;;;17.85;2.30;;;12.30;99.90;;;;;;5010097;28;20061;-57
2022/05/21 07:17:48;;;;;;;14.98;1.90;;;12.30;99.90;;;;;;5008804;28;20050;-57
2022/05/21 07:20:21;;;;;;;14.07;2.03;;;12.20;99.90;;;;;;5009094;28;20509;-57
2022/05/21 07:22:49;;;;;;;18.60;3.80;;;12.30;99.90;;;;;;5010146;28;20053;-57
2022/05/21 07:25:21;;;;;;;29.63;4.05;;;12.30;99.90;;;;;;5008889;28;20037;-57
2022/05/21 07:27:55;;;;;;;15.07;1.83;;;12.40;99.90;;;;;;5009782;28;20050;-57
2022/05/21 07:30:23;;;;;;;12.48;1.30;;;12.50;99.90;;;;;;5009944;28;20046;-57
2022/05/21 07:32:51;;;;;;;9.02;1.40;;;12.60;99.90;;;;;;5010004;28;20065;-57
2022/05/21 07:35:19;;;;;;;14.73;2.05;;;12.70;99.90;;;;;;5005095;28;20490;-57
2022/05/21 07:37:51;;;;;;;10.77;1.58;;;12.80;99.90;;;;;;4996218;28;20054;-57
2022/05/21 07:40:21;;;;;;;10.52;1.27;;;12.90;99.90;;;;;;5009850;28;20425;-57
2022/05/21 07:42:49;;;;;;;13.35;1.63;;;13.00;99.90;;;;;;5009934;28;20050;-57
2022/05/21 07:45:19;;;;;;;8.75;1.65;;;13.10;99.90;;;;;;5009961;28;20087;-57
2022/05/21 07:47:49;;;;;;;5.35;0.85;;;13.10;99.90;;;;;;5009750;28;20050;-57
2022/05/21 07:50:18;;;;;;;7.63;1.38;;;13.20;99.90;;;;;;5004803;28;20055;-57
2022/05/21 07:52:46;;;;;;;8.68;1.80;;;13.30;99.90;;;;;;4991487;28;20398;-57
2022/05/21 07:55:14;;;;;;;7.43;1.77;;;13.40;99.90;;;;;;5009935;28;20046;-57
2022/05/21 07:57:41;;;;;;;12.50;1.50;;;13.50;99.90;;;;;;5005132;28;20069;-57
2022/05/21 08:00:10;;;;;;;12.82;1.45;;;13.50;99.90;;;;;;5005154;28;20046;-57
2022/05/21 08:02:41;;;;;;;11.55;1.70;;;13.60;99.90;;;;;;5007825;28;20061;-57
2022/05/21 08:05:09;;;;;;;10.38;1.77;;;13.70;99.90;;;;;;4995975;28;20379;-57
2022/05/21 08:07:37;;;;;;;12.68;2.60;;;13.70;99.90;;;;;;4977179;28;20065;-57
2022/05/21 08:10:06;;;;;;;10.88;1.77;;;13.70;99.90;;;;;;5009637;28;20049;-57
2022/05/21 08:12:33;;;;;;;13.40;2.60;;;13.70;99.90;;;;;;5012975;28;20055;-57
2022/05/21 08:15:01;;;;;;;16.65;2.25;;;13.80;99.90;;;;;;5012001;28;20492;-56
2022/05/21 08:17:29;;;;;;;12.90;2.42;;;13.80;99.90;;;;;;5013297;28;20053;-57
2022/05/21 08:19:57;;;;;;;11.15;1.83;;;13.80;99.90;;;;;;5002139;28;20504;-56
2022/05/21 08:27:59;;;;;;;9.38;1.60;;;13.90;99.90;;;;;;4999475;28;20050;-60
2022/05/21 08:30:27;;;;;;;11.23;3.00;;;13.90;99.90;;;;;;5012962;28;20041;-57
2022/05/21 08:32:59;;;;;;;9.60;1.80;;;14.00;99.90;;;;;;5013005;28;20075;-58
2022/05/21 08:35:30;;;;;;;16.20;2.38;;;14.10;99.90;;;;;;4998413;28;20046;-57
2022/05/21 08:37:59;;;;;;;11.32;1.92;;;14.00;99.90;;;;;;5032430;28;20882;-57
2022/05/21 08:40:41;;;;;;;14.00;1.58;;;14.00;99.90;;;;;;5013057;28;20046;-58
2022/05/21 08:43:19;;;;;;;19.30;2.50;;;14.10;99.90;;;;;;5012854;28;20042;-58
2022/05/21 08:46:19;;;;;;;7.05;1.88;;;14.20;99.90;;;;;;5012882;28;20057;-57
2022/05/21 08:48:59;;;;;;;10.45;1.60;;;14.20;99.90;;;;;;5010982;28;20042;-57
2022/05/21 08:51:32;;;;;;;9.90;3.80;;;14.20;99.90;;;;;;5008195;28;20042;-57
2022/05/21 08:54:03;;;;;;;12.57;2.30;;;14.20;99.90;;;;;;5003700;28;20042;-57
2022/05/21 08:56:31;;;;;;;11.50;1.40;;;14.20;99.90;;;;;;5011477;28;20061;-57
2022/05/21 08:59:08;;;;;;;8.88;2.13;;;14.20;99.90;;;;;;5011483;28;20421;-57
2022/05/21 09:01:40;;;;;;;8.15;1.42;;;14.30;99.90;;;;;;5011388;28;20050;-57
2022/05/21 09:04:10;;;;;;;8.55;1.48;;;14.30;99.90;;;;;;5010731;28;20057;-58
2022/05/21 09:06:48;;;;;;;14.10;2.55;;;14.30;99.90;;;;;;4993190;28;20477;-58
2022/05/21 09:09:48;;;;;;;11.43;2.45;;;14.50;99.90;;;;;;5008978;28;20056;-59
2022/05/21 09:12:21;;;;;;;9.93;2.92;;;14.60;99.90;;;;;;5012476;28;20644;-57
2022/05/21 09:14:54;;;;;;;14.05;1.83;;;14.70;99.90;;;;;;5012266;28;20470;-60
2022/05/21 09:17:25;;;;;;;9.45;2.42;;;14.70;99.90;;;;;;5010820;28;20045;-57
2022/05/21 09:19:57;;;;;;;5.65;1.90;;;14.80;99.90;;;;;;5004923;28;20057;-57
2022/05/21 09:22:30;;;;;;;13.00;1.73;;;14.80;99.90;;;;;;4975322;28;20486;-57
2022/05/21 09:25:22;;;;;;;8.27;1.67;;;14.70;99.90;;;;;;5009297;28;20044;-56
2022/05/21 09:28:05;;;;;;;14.00;2.20;;;14.70;99.90;;;;;;5012172;28;20642;-57
2022/05/21 09:30:36;;;;;;;12.27;2.55;;;14.70;99.90;;;;;;5011860;28;20065;-57
2022/05/21 09:33:37;;;;;;;12.20;2.00;;;14.70;99.90;;;;;;5011867;28;20046;-57
2022/05/21 09:36:06;;;;;;;8.57;1.83;;;14.80;99.90;;;;;;4996108;28;20050;-57
2022/05/21 09:38:48;;;;;;;12.95;1.75;;;14.90;99.90;;;;;;5002787;28;20061;-58
2022/05/21 09:41:32;;;;;;;9.40;1.48;;;15.00;99.90;;;;;;5011820;28;20461;-57
2022/05/21 09:47:23;;;;;;;14.27;1.38;;;15.10;99.90;;;;;;5011807;28;20493;-58
2022/05/21 09:50:23;;;;;;;13.48;1.80;;;15.20;99.90;;;;;;5005881;28;20494;-58
2022/05/21 09:52:52;;;;;;;14.52;1.75;;;15.10;99.90;;;;;;4992023;28;20042;-57
2022/05/21 09:55:26;;;;;;;13.30;1.70;;;15.00;99.90;;;;;;5008808;28;20061;-57
2022/05/21 09:58:13;;;;;;;9.10;1.17;;;15.10;99.90;;;;;;5011422;28;20046;-57
2022/05/21 10:00:51;;;;;;;7.82;1.40;;;15.30;99.90;;;;;;5011449;28;20054;-57
2022/05/21 10:03:36;;;;;;;9.75;1.13;;;15.60;99.90;;;;;;5010192;28;20050;-57
2022/05/21 10:06:14;;;;;;;5.35;0.90;;;15.90;99.90;;;;;;4997844;28;20057;-57
2022/05/21 10:11:31;;;;;;;9.45;1.38;;;16.40;99.90;;;;;;5011344;28;20042;-57
2022/05/21 10:14:11;;;;;;;9.60;1.77;;;16.60;99.90;;;;;;5011159;28;20045;-57
2022/05/21 10:16:54;;;;;;;12.82;1.52;;;16.70;99.90;;;;;;5009933;28;20445;-57
2022/05/21 10:19:55;;;;;;;15.13;1.52;;;16.70;99.90;;;;;;5009776;28;20412;-58
2022/05/21 10:22:47;;;;;;;3.20;0.90;;;16.70;99.90;;;;;;4990544;28;20122;-58
2022/05/21 10:25:18;;;;;;;7.68;1.00;;;16.50;99.90;;;;;;5007461;28;20397;-58
2022/05/21 10:28:03;;;;;;;5.00;0.77;;;16.50;99.90;;;;;;5009774;28;20046;-59
2022/05/21 10:31:04;;;;;;;8.20;1.20;;;16.50;99.90;;;;;;5011010;28;20049;-58
2022/05/21 10:33:50;;;;;;;10.55;1.23;;;16.60;99.90;;;;;;5010599;28;20501;-58
2022/05/21 10:36:46;;;;;;;8.40;2.25;;;16.60;99.90;;;;;;4997054;28;20050;-57
2022/05/21 10:39:40;;;;;;;5.60;1.30;;;16.60;99.90;;;;;;5008084;28;20049;-58
2022/05/21 10:42:26;;;;;;;7.97;1.40;;;16.60;99.90;;;;;;5010021;28;20046;-58
2022/05/21 10:45:02;;;;;;;5.45;1.23;;;16.60;99.90;;;;;;5007484;28;20063;-58
2022/05/21 10:48:27;;;;;;;8.85;1.50;;;16.70;99.90;;;;;;5007447;28;20045;-58
2022/05/21 10:51:16;;;;;;;4.50;0.98;;;16.90;99.90;;;;;;4935933;29;20492;-58
2022/05/21 10:53:54;;;;;;;15.73;1.58;;;17.00;99.90;;;;;;4914645;29;20401;-57
2022/05/21 10:56:48;;;;;;;8.07;1.13;;;17.10;99.90;;;;;;4996597;28;20065;-58
2022/05/21 10:59:30;;;;;;;5.38;1.20;;;17.10;99.90;;;;;;5007147;28;20057;-58
2022/05/21 11:02:27;;;;;;;13.93;1.23;;;17.00;99.90;;;;;;5007131;28;20057;-58
2022/05/21 11:05:00;;;;;;;5.35;1.45;;;16.80;99.90;;;;;;5005874;28;20379;-57
2022/05/21 11:07:55;;;;;;;9.40;1.77;;;16.70;99.90;;;;;;4989959;28;20505;-58
2022/05/21 11:10:38;;;;;;;8.50;1.35;;;16.70;99.90;;;;;;5006730;28;20046;-58
2022/05/21 11:13:07;;;;;;;9.75;1.50;;;16.80;99.90;;;;;;5007381;28;20045;-58
2022/05/21 11:15:39;;;;;;;8.50;1.42;;;16.80;99.90;;;;;;5006928;28;20519;-58
2022/05/21 11:18:16;;;;;;;8.85;1.30;;;16.70;99.90;;;;;;5006972;28;20049;-58
2022/05/21 11:21:08;;;;;;;8.35;1.35;;;16.90;99.90;;;;;;4999283;28;20054;-57
2022/05/21 11:23:51;;;;;;;9.65;1.20;;;17.00;99.90;;;;;;4989542;28;20051;-57
2022/05/21 11:26:48;;;;;;;6.75;1.40;;;17.20;99.90;;;;;;5006922;28;20045;-58
2022/05/21 11:29:38;;;;;;;11.65;1.50;;;17.40;99.90;;;;;;5006549;28;20401;-58
2022/05/21 11:37:54;;;;;;;6.80;1.10;;;18.40;99.90;;;;;;4992791;28;20065;-57
2022/05/21 11:40:50;;;;;;;12.85;1.73;;;18.70;99.90;;;;;;5006790;28;20051;-57
2022/05/21 11:43:21;;;;;;;8.82;1.10;;;18.80;99.90;;;;;;4998826;28;20049;-58
2022/05/21 11:46:08;;;;;;;6.03;1.38;;;18.80;99.90;;;;;;5007166;28;20049;-58
2022/05/21 11:48:37;;;;;;;11.63;1.48;;;18.90;99.90;;;;;;5010537;28;20054;-58
2022/05/21 11:51:20;;;;;;;8.05;0.98;;;18.90;99.90;;;;;;5002338;28;20053;-57
2022/05/21 11:53:47;;;;;;;8.23;1.65;;;18.90;99.50;;;;;;4994913;28;20053;-58
2022/05/21 11:56:15;;;;;;;8.18;1.33;;;18.80;99.90;;;;;;5010555;28;20046;-57
2022/05/21 11:58:58;;;;;;;8.45;1.13;;;18.90;99.60;;;;;;5010408;28;20049;-57
2022/05/21 12:01:40;;;;;;;7.57;1.10;;;19.10;99.50;;;;;;5010731;28;20049;-58
2022/05/21 12:04:45;;;;;;;7.40;1.20;;;19.20;97.90;;;;;;5010133;28;20042;-57
2022/05/21 12:07:36;;;;;;;5.28;0.85;;;19.40;99.00;;;;;;4993716;28;20042;-58
2022/05/21 12:10:13;;;;;;;6.75;2.25;;;19.70;96.10;;;;;;5010047;28;20049;-58
2022/05/21 12:12:59;;;;;;;8.52;1.45;;;19.80;97.10;;;;;;5010324;28;20041;-58
2022/05/21 12:15:47;;;;;;;9.68;1.52;;;20.10;96.00;;;;;;5009673;28;20046;-58
2022/05/21 12:18:33;;;;;;;5.00;0.95;;;20.30;95.90;;;;;;5010108;28;20520;-58
2022/05/21 12:21:02;;;;;;;6.10;1.23;;;20.50;94.20;;;;;;5003632;28;20043;-58
2022/05/21 12:23:32;;;;;;;6.07;0.85;;;20.80;93.00;;;;;;4991274;28;20060;-58
2022/05/21 12:26:02;;;;;;;6.97;1.20;;;20.80;90.80;;;;;;5009950;28;20053;-57
2022/05/21 12:29:01;;;;;;;8.57;1.38;;;20.90;91.00;;;;;;5009726;28;20046;-57
2022/05/21 12:31:36;;;;;;;9.18;1.23;;;21.10;89.90;;;;;;4986056;28;20402;-58
2022/05/21 12:34:12;;;;;;;5.80;1.08;;;21.30;85.20;;;;;;5008602;28;20401;-58
2022/05/21 12:37:12;;;;;;;6.22;1.23;;;21.50;87.20;;;;;;5000488;28;20055;-57
2022/05/21 12:39:47;;;;;;;7.72;0.90;;;21.80;87.00;;;;;;4992108;28;20062;-57
2022/05/21 12:42:33;;;;;;;4.75;0.85;;;22.20;86.50;;;;;;4993595;28;20042;-58
2022/05/21 12:45:03;;;;;;;7.03;1.23;;;22.30;80.30;;;;;;5006608;28;20050;-57
2022/05/21 12:47:44;;;;;;;10.77;1.30;;;21.90;79.70;;;;;;5012758;28;20053;-57
2022/05/21 12:50:18;;;;;;;10.13;1.70;;;21.60;81.80;;;;;;5012746;28;20064;-57
2022/05/21 12:52:57;;;;;;;9.02;1.60;;;21.50;84.50;;;;;;4992549;28;20062;-57
2022/05/21 12:55:31;;;;;;;5.63;0.93;;;21.60;85.70;;;;;;5009489;28;20069;-57
2022/05/21 12:58:16;;;;;;;10.98;1.20;;;22.00;82.70;;;;;;5011220;28;20052;-57
2022/05/21 13:00:53;;;;;;;5.80;1.20;;;21.90;81.30;;;;;;4995268;28;20104;-57
2022/05/21 13:03:23;;;;;;;8.70;1.58;;;21.60;81.40;;;;;;5012559;28;20053;-57
2022/05/21 13:05:55;;;;;;;8.57;1.00;;;21.30;82.30;;;;;;5008540;28;20153;-57
2022/05/21 13:08:24;;;;;;;7.03;1.05;;;21.00;82.30;;;;;;5001418;28;20261;-57
2022/05/21 13:11:17;;;;;;;7.68;1.52;;;20.90;82.20;;;;;;5012221;28;20050;-57
2022/05/21 13:13:57;;;;;;;14.20;1.52;;;20.70;83.60;;;;;;5002814;28;20053;-57
2022/05/21 13:16:25;;;;;;;7.45;1.48;;;20.70;83.40;;;;;;5012311;28;20053;-57
2022/05/21 13:19:12;;;;;;;9.13;1.30;;;20.70;84.40;;;;;;5009575;28;20049;-57
2022/05/21 13:21:45;;;;;;;7.20;1.35;;;21.00;85.90;;;;;;5001192;28;20042;-58
2022/05/21 13:24:39;;;;;;;4.80;0.90;;;21.40;82.40;;;;;;4995711;28;20049;-57
2022/05/21 13:27:11;;;;;;;5.53;1.27;;;21.70;81.80;;;;;;5007890;28;20391;-58
2022/05/21 13:29:40;;;;;;;11.57;1.10;;;22.10;79.50;;;;;;5008962;28;20200;-57
2022/05/21 13:32:23;;;;;;;7.80;1.63;;;22.40;79.40;;;;;;5009151;28;20322;-57
2022/05/21 13:34:53;;;;;;;7.57;1.52;;;22.70;78.30;;;;;;5008683;28;20813;-57
2022/05/21 13:37:43;;;;;;;8.38;1.70;;;22.80;77.00;;;;;;4997168;28;20050;-57
2022/05/21 13:40:16;;;;;;;7.88;1.30;;;22.70;74.90;;;;;;5008258;28;20056;-57
2022/05/21 13:42:46;;;;;;;6.45;1.13;;;22.30;75.70;;;;;;5008749;28;20057;-57
2022/05/21 13:45:28;;;;;;;6.70;0.85;;;22.20;77.50;;;;;;5008741;28;20054;-57
2022/05/21 13:48:15;;;;;;;7.32;1.52;;;22.20;76.70;;;;;;5008483;28;20064;-57